createdAt,value
2022-10-13T00:02:50.098Z,98844.91
2022-10-13T00:05:51.795Z,98838.06
2022-10-13T00:08:54.913Z,98848.97
2022-10-13T00:11:57.240Z,98850.91
2022-10-13T00:14:59.249Z,98846.69
2022-10-13T00:18:02.906Z,98847.63
2022-10-13T00:21:07.150Z,98847.75
2022-10-13T00:24:11.855Z,98848.72
2022-10-13T00:27:13.620Z,98850.63
2022-10-13T00:30:15.478Z,98845.81
2022-10-13T00:33:18.452Z,98847.31
2022-10-13T00:36:20.355Z,98839.97
2022-10-13T00:39:23.302Z,98842.47
2022-10-13T00:42:26.398Z,98843.50
2022-10-13T00:45:29.653Z,98839.94
2022-10-13T00:48:31.299Z,98850.69
2022-10-13T00:51:34.804Z,98842.91
2022-10-13T00:54:37.807Z,98838.69
2022-10-13T00:57:40.265Z,98840.50
2022-10-13T01:00:43.587Z,98840.50
2022-10-13T01:03:45.627Z,98840.03
2022-10-13T01:06:47.400Z,98838.94
2022-10-13T01:09:50.790Z,98846.06
2022-10-13T01:12:58.191Z,98836.28
2022-10-13T01:16:01.606Z,98837.03
2022-10-13T01:19:11.335Z,98831.63
2022-10-13T01:22:19.791Z,98829.56
2022-10-13T01:25:34.580Z,98825.09
2022-10-13T01:28:50.121Z,98825.13
2022-10-13T01:31:57.510Z,98820.66
2022-10-13T01:35:03.760Z,98822.31
2022-10-13T01:38:08.426Z,98816.09
2022-10-13T01:41:13.928Z,98818.06
2022-10-13T01:44:19.789Z,98811.13
2022-10-13T01:47:23.938Z,98806.19
2022-10-13T01:50:26.105Z,98800.22
2022-10-13T01:53:29.001Z,98792.53
2022-10-13T01:56:30.810Z,98795.41
2022-10-13T01:59:35.362Z,98784.75
2022-10-13T02:02:41.901Z,98788.47
2022-10-13T02:05:49.408Z,98782.38
2022-10-13T02:08:56.219Z,98780.59
2022-10-13T02:11:59.936Z,98783.03
2022-10-13T02:15:04.777Z,98776.84
2022-10-13T02:18:09.642Z,98776.13
2022-10-13T02:21:11.675Z,98766.56
2022-10-13T02:24:13.984Z,98764.88
2022-10-13T02:27:16.319Z,98766.75
2022-10-13T02:30:21.936Z,98772.06
2022-10-13T02:33:27.280Z,98768.47
2022-10-13T02:36:29.177Z,98769.22
2022-10-13T02:39:30.732Z,98764.66
2022-10-13T02:42:32.505Z,98766.41
2022-10-13T02:45:34.156Z,98773.47
2022-10-13T02:48:38.657Z,98768.22
2022-10-13T02:51:40.703Z,98769.34
2022-10-13T02:54:42.908Z,98761.41
2022-10-13T02:57:44.617Z,98761.34
2022-10-13T03:00:46.311Z,98765.47
2022-10-13T03:03:52.104Z,98754.94
2022-10-13T03:06:53.891Z,98758.41
2022-10-13T03:09:55.601Z,98760.88
2022-10-13T03:12:57.493Z,98756.38
2022-10-13T03:15:59.287Z,98762.50
2022-10-13T03:19:02.474Z,98763.41
2022-10-13T03:22:04.208Z,98762.56
2022-10-13T03:25:06.644Z,98755.38
2022-10-13T03:28:08.294Z,98757.19
2022-10-13T03:31:14.553Z,98762.44
2022-10-13T03:34:17.806Z,98752.69
2022-10-13T03:37:19.490Z,98759.63
2022-10-13T03:40:25.124Z,98759.69
2022-10-13T03:43:26.778Z,98749.72
2022-10-13T03:46:29.573Z,98757.56
2022-10-13T03:49:32.579Z,98754.84
2022-10-13T03:52:34.315Z,98761.75
2022-10-13T03:55:35.855Z,98759.84
2022-10-13T03:58:37.472Z,98761.59
2022-10-13T04:01:39.707Z,98764.09
2022-10-13T04:04:42.695Z,98764.81
2022-10-13T04:07:44.492Z,98761.28
2022-10-13T04:10:46.136Z,98764.81
2022-10-13T04:13:48.924Z,98762.16
2022-10-13T04:16:50.586Z,98762.22
2022-10-13T04:19:55.704Z,98752.44
2022-10-13T04:22:57.360Z,98745.38
2022-10-13T04:25:59.059Z,98749.91
2022-10-13T04:29:02.849Z,98751.69
2022-10-13T04:32:04.726Z,98743.84
2022-10-13T04:35:08.216Z,98751.81
2022-10-13T04:38:09.947Z,98739.31
2022-10-13T04:41:14.786Z,98739.31
2022-10-13T04:44:16.773Z,98739.53
2022-10-13T04:47:18.550Z,98736.19
2022-10-13T04:50:21.812Z,98739.00
2022-10-13T04:53:24.218Z,98732.91
2022-10-13T04:56:26.211Z,98730.34
2022-10-13T04:59:27.942Z,98725.03
2022-10-13T05:02:29.809Z,98725.16
2022-10-13T05:05:35.085Z,98725.03
2022-10-13T05:08:37.628Z,98730.34
2022-10-13T05:11:41.312Z,98726.88
2022-10-13T05:14:42.886Z,98721.66
2022-10-13T05:17:45.116Z,98723.44
2022-10-13T05:20:48.490Z,98722.66
2022-10-13T05:23:53.915Z,98720.06
2022-10-13T05:26:55.592Z,98716.59
2022-10-13T05:30:04.954Z,98710.34
2022-10-13T05:33:06.489Z,98712.00
2022-10-13T05:36:10.892Z,98702.16
2022-10-13T05:39:13.279Z,98707.47
2022-10-13T05:42:14.929Z,98712.78
2022-10-13T05:45:18.038Z,98718.09
2022-10-13T05:48:19.790Z,98708.41
2022-10-13T05:51:24.014Z,98706.53
2022-10-13T05:54:30.378Z,98711.66
2022-10-13T05:57:33.388Z,98706.28
2022-10-13T06:00:35.128Z,98708.94
2022-10-13T06:03:37.265Z,98708.94
2022-10-13T06:06:40.399Z,98696.56
2022-10-13T06:09:51.350Z,98688.66
2022-10-13T06:12:52.970Z,98693.91
2022-10-13T06:15:55.656Z,98693.03
2022-10-13T06:18:57.280Z,98693.09
2022-10-13T06:22:03.593Z,98707.22
2022-10-13T06:25:09.880Z,98685.00
2022-10-13T06:28:13.268Z,98700.84
2022-10-13T06:31:14.984Z,98693.72
2022-10-13T06:34:16.663Z,98699.88
2022-10-13T06:37:24.705Z,98699.81
2022-10-13T06:40:28.726Z,98705.00
2022-10-13T06:43:38.726Z,98705.75
2022-10-13T06:46:42.024Z,98701.13
2022-10-13T06:49:44.354Z,98704.53
2022-10-13T06:52:50.462Z,98705.31
2022-10-13T06:55:58.198Z,98706.97
2022-10-13T06:58:59.916Z,98704.31
2022-10-13T07:02:01.578Z,98707.78
2022-10-13T07:05:03.823Z,98708.44
2022-10-13T07:08:07.187Z,98710.22
2022-10-13T07:11:14.526Z,98702.94
2022-10-13T07:14:17.764Z,98702.81
2022-10-13T07:17:19.491Z,98702.66
2022-10-13T07:20:21.491Z,98706.06
2022-10-13T07:23:24.671Z,98669.56
2022-10-13T07:26:28.232Z,98695.13
2022-10-13T07:29:29.780Z,98687.03
2022-10-13T07:32:31.998Z,98684.25
2022-10-13T07:35:33.574Z,98675.16
2022-10-13T07:38:36.688Z,98686.59
2022-10-13T07:41:38.462Z,98673.00
2022-10-13T07:44:40.218Z,98671.13
2022-10-13T07:47:42.056Z,98680.78
2022-10-13T07:50:43.598Z,98673.56
2022-10-13T07:53:47.048Z,98675.16
2022-10-13T07:56:51.048Z,98689.25
2022-10-13T07:59:52.771Z,98674.19
2022-10-13T08:02:54.330Z,98676.66
2022-10-13T08:05:58.603Z,98677.38
2022-10-13T08:09:02.026Z,98666.69
2022-10-13T08:12:03.842Z,98678.06
2022-10-13T08:15:06.662Z,98675.34
2022-10-13T08:18:09.090Z,98678.78
2022-10-13T08:21:53.338Z,98671.59
2022-10-13T08:24:36.546Z,98662.66
2022-10-13T08:27:50.588Z,98662.53
2022-10-13T08:30:54.312Z,98670.41
2022-10-13T08:33:56.295Z,98677.53
2022-10-13T08:37:00.036Z,98683.66
2022-10-13T08:40:06.499Z,98676.41
2022-10-13T08:43:08.874Z,98674.41
2022-10-13T08:46:11.761Z,98673.22
2022-10-13T08:49:16.593Z,98672.78
2022-10-13T08:52:20.190Z,98678.56
2022-10-13T08:55:29.487Z,98678.91
2022-10-13T08:58:33.501Z,98672.03
2022-10-13T09:01:36.582Z,98672.63
2022-10-13T09:04:41.608Z,98677.53
2022-10-13T09:07:46.117Z,98672.78
2022-10-13T09:10:50.143Z,98671.47
2022-10-13T09:13:54.314Z,98677.91
2022-10-13T09:16:57.909Z,98670.47
2022-10-13T09:20:00.730Z,98675.50
2022-10-13T09:23:03.840Z,98672.81
2022-10-13T09:26:16.260Z,98676.75
2022-10-13T09:29:19.174Z,98656.78
2022-10-13T09:32:24.004Z,98662.81
2022-10-13T09:35:25.936Z,98661.63
2022-10-13T09:38:28.115Z,98661.25
2022-10-13T09:41:31.432Z,98657.47
2022-10-13T09:44:33.371Z,98658.38
2022-10-13T09:47:35.135Z,98655.56
2022-10-13T09:50:36.937Z,98656.38
2022-10-13T09:53:40.183Z,98660.38
2022-10-13T09:56:46.450Z,98664.19
2022-10-13T09:59:52.958Z,98657.53
2022-10-13T10:02:57.890Z,98660.75
2022-10-13T10:06:00.649Z,98661.81
2022-10-13T10:09:05.584Z,98665.19
2022-10-13T10:12:12.586Z,98654.19
2022-10-13T10:15:20.905Z,98656.38
2022-10-13T10:18:31.411Z,98652.00
2022-10-13T10:21:37.286Z,98652.34
2022-10-13T10:24:44.412Z,98650.69
2022-10-13T10:27:52.635Z,98651.66
2022-10-13T10:30:58.781Z,98646.34
2022-10-13T10:34:07.892Z,98638.66
2022-10-13T10:37:22.861Z,98628.56
2022-10-13T10:40:32.428Z,98628.19
2022-10-13T10:43:52.121Z,98623.38
2022-10-13T10:46:57.465Z,98623.81
2022-10-13T10:50:01.903Z,98615.16
2022-10-13T10:53:06.491Z,98611.94
2022-10-13T10:56:14.045Z,98610.72
2022-10-13T10:59:26.528Z,98610.25
2022-10-13T11:02:42.664Z,98599.78
2022-10-13T11:06:00.806Z,98601.94
2022-10-13T11:09:03.923Z,98594.91
2022-10-13T11:12:22.495Z,98583.50
2022-10-13T11:15:25.202Z,98584.50
2022-10-13T11:18:45.790Z,98578.63
2022-10-13T11:22:06.427Z,98568.94
2022-10-13T11:25:36.536Z,98572.31
2022-10-13T11:28:47.909Z,98562.25
2022-10-13T11:31:51.410Z,98557.28
2022-10-13T11:34:57.658Z,98557.06
2022-10-13T11:38:20.980Z,98558.19
2022-10-13T11:41:27.357Z,98560.63
2022-10-13T11:44:33.734Z,98544.63
2022-10-13T11:47:49.016Z,98553.53
2022-10-13T11:50:57.729Z,98550.75
2022-10-13T11:54:05.518Z,98551.81
2022-10-13T11:57:18.799Z,98548.44
2022-10-13T12:00:20.512Z,98549.69
2022-10-13T12:03:23.807Z,98550.16
2022-10-13T12:06:33.201Z,98550.53
2022-10-13T12:09:36.733Z,98543.34
2022-10-13T12:12:45.989Z,98536.06
2022-10-13T12:15:47.569Z,98526.69
2022-10-13T12:18:49.248Z,98524.09
2022-10-13T12:21:51.833Z,98528.63
2022-10-13T12:24:56.938Z,98520.56
2022-10-13T12:28:01.109Z,98519.81
2022-10-13T12:31:03.338Z,98526.19
2022-10-13T12:34:05.169Z,98522.66
2022-10-13T12:37:11.842Z,98524.44
2022-10-13T12:40:14.236Z,98518.78
2022-10-13T12:43:19.107Z,98525.22
2022-10-13T12:46:36.923Z,98518.78
2022-10-13T12:49:39.046Z,98517.34
2022-10-13T12:52:40.608Z,98515.19
2022-10-13T12:55:47.713Z,98519.25
2022-10-13T12:58:50.833Z,98514.38
2022-10-13T13:01:53.344Z,98514.66
2022-10-13T13:04:55.527Z,98508.59
2022-10-13T13:07:57.312Z,98503.44
2022-10-13T13:11:00.168Z,98504.63
2022-10-13T13:14:16.728Z,98506.44
2022-10-13T13:20:47.703Z,98499.41
2022-10-13T13:23:53.076Z,98495.69
2022-10-13T13:26:55.919Z,98496.34
2022-10-13T13:29:57.612Z,98500.31
2022-10-13T13:33:00.563Z,98493.69
2022-10-13T13:36:02.471Z,98496.66
2022-10-13T13:39:06.809Z,98499.81
2022-10-13T13:42:14.185Z,98496.75
2022-10-13T13:45:16.553Z,98491.00
2022-10-13T13:48:19.548Z,98492.94
2022-10-13T13:51:21.385Z,98490.47
2022-10-13T13:54:23.004Z,98490.00
2022-10-13T13:57:24.631Z,98490.41
2022-10-13T14:00:26.165Z,98481.66
2022-10-13T14:03:30.480Z,98483.69
2022-10-13T14:06:32.274Z,98481.97
2022-10-13T14:09:34.321Z,98485.81
2022-10-13T14:12:39.350Z,98482.34
2022-10-13T14:15:40.994Z,98476.13
2022-10-13T14:18:44.155Z,98475.16
2022-10-13T14:21:46.156Z,98481.38
2022-10-13T14:24:48.001Z,98477.94
2022-10-13T14:27:49.863Z,98480.72
2022-10-13T14:30:51.639Z,98472.88
2022-10-13T14:33:54.941Z,98464.81
2022-10-13T14:36:56.997Z,98464.72
2022-10-13T14:39:58.729Z,98465.69
2022-10-13T14:43:00.413Z,98464.06
2022-10-13T14:46:02.801Z,98459.66
2022-10-13T14:49:05.939Z,98453.50
2022-10-13T14:52:09.038Z,98458.22
2022-10-13T14:55:16.659Z,98464.66
2022-10-13T14:58:18.702Z,98456.72
2022-10-13T15:01:20.696Z,98458.59
2022-10-13T15:04:24.334Z,98453.44
2022-10-13T15:07:26.275Z,98454.41
2022-10-13T15:10:28.051Z,98458.16
2022-10-13T15:13:29.812Z,98458.38
2022-10-13T15:16:33.682Z,98462.00
2022-10-13T15:19:36.790Z,98460.34
2022-10-13T15:22:38.419Z,98464.97
2022-10-13T15:25:40.853Z,98459.59
2022-10-13T15:28:44.128Z,98457.88
2022-10-13T15:31:45.700Z,98457.22
2022-10-13T15:34:48.643Z,98451.16
2022-10-13T15:37:50.298Z,98454.16
2022-10-13T15:40:52.146Z,98446.31
2022-10-13T15:43:53.858Z,98451.09
2022-10-13T15:47:07.875Z,98455.13
2022-10-13T15:50:11.862Z,98462.59
2022-10-13T15:53:15.854Z,98460.22
2022-10-13T15:56:17.567Z,98456.94
2022-10-13T15:59:19.288Z,98457.22
2022-10-13T16:02:22.074Z,98460.09
2022-10-13T16:05:25.651Z,98456.75
2022-10-13T16:08:27.638Z,98457.03
2022-10-13T16:11:29.477Z,98462.56
2022-10-13T16:14:31.066Z,98454.81
2022-10-13T16:17:33.110Z,98460.38
2022-10-13T16:20:37.929Z,98460.47
2022-10-13T16:23:39.559Z,98456.03
2022-10-13T16:26:41.205Z,98462.34
2022-10-13T16:29:42.760Z,98457.84
2022-10-13T16:32:44.392Z,98464.19
2022-10-13T16:35:47.408Z,98470.75
2022-10-13T16:38:49.986Z,98473.41
2022-10-13T16:41:52.331Z,98477.44
2022-10-13T16:44:54.060Z,98474.19
2022-10-13T16:47:55.638Z,98483.88
2022-10-13T16:50:58.824Z,98480.19
2022-10-13T16:54:04.233Z,98483.19
2022-10-13T16:57:06.230Z,98483.56
2022-10-13T17:00:12.763Z,98481.84
2022-10-13T17:03:14.424Z,98478.72
2022-10-13T17:06:18.070Z,98480.72
2022-10-13T17:09:19.845Z,98480.00
2022-10-13T17:12:21.404Z,98482.00
2022-10-13T17:15:23.319Z,98477.59
2022-10-13T17:18:25.216Z,98487.63
2022-10-13T17:21:28.512Z,98474.31
2022-10-13T17:24:30.742Z,98482.34
2022-10-13T17:27:36.608Z,98484.13
2022-10-13T17:30:38.243Z,98475.41
2022-10-13T17:33:40.838Z,98479.06
2022-10-13T17:36:44.034Z,98488.88
2022-10-13T17:39:45.917Z,98488.03
2022-10-13T17:42:47.667Z,98485.44
2022-10-13T17:45:49.336Z,98490.00
2022-10-13T17:48:50.998Z,98489.16
2022-10-13T17:51:55.211Z,98486.47
2022-10-13T17:54:56.882Z,98488.28
2022-10-13T17:57:58.378Z,98479.38
2022-10-13T18:01:12.848Z,98474.03
2022-10-13T18:04:17.191Z,98478.59
2022-10-13T18:07:20.493Z,98476.00
2022-10-13T18:10:22.251Z,98471.56
2022-10-13T18:13:23.812Z,98469.84
2022-10-13T18:16:25.525Z,98453.91
2022-10-13T18:19:27.030Z,98464.69
2022-10-13T18:22:30.017Z,98471.75
2022-10-13T18:25:33.997Z,98471.75
2022-10-13T18:28:36.630Z,98470.91
2022-10-13T18:31:39.519Z,98470.97
2022-10-13T18:34:41.072Z,98473.66
2022-10-13T18:37:49.182Z,98469.31
2022-10-13T18:40:50.935Z,98465.88
2022-10-13T18:43:55.670Z,98464.22
2022-10-13T18:46:57.439Z,98468.81
2022-10-13T18:49:59.934Z,98468.91
2022-10-13T18:53:03.282Z,98467.16
2022-10-13T18:56:05.670Z,98463.59
2022-10-13T18:59:08.348Z,98465.50
2022-10-13T19:02:13.034Z,98464.63
2022-10-13T19:05:17.832Z,98458.44
2022-10-13T19:08:20.904Z,98461.88
2022-10-13T19:11:22.904Z,98458.25
2022-10-13T19:14:24.643Z,98455.53
2022-10-13T19:17:26.303Z,98463.53
2022-10-13T19:20:28.183Z,98460.00
2022-10-13T19:23:31.185Z,98468.94
2022-10-13T19:26:33.880Z,98464.53
2022-10-13T19:29:35.577Z,98456.53
2022-10-13T19:32:38.476Z,98453.09
2022-10-13T19:35:40.892Z,98451.34
2022-10-13T19:38:45.168Z,98450.50
2022-10-13T19:41:50.867Z,98451.44
2022-10-13T19:44:52.730Z,98450.59
2022-10-13T19:47:54.289Z,98446.19
2022-10-13T19:50:56.023Z,98445.31
2022-10-13T19:53:59.106Z,98451.72
2022-10-13T19:57:00.699Z,98443.69
2022-10-13T20:00:02.518Z,98450.81
2022-10-13T20:03:04.853Z,98448.13
2022-10-13T20:06:06.856Z,98451.72
2022-10-13T20:09:09.997Z,98445.41
2022-10-13T20:12:11.937Z,98448.09
2022-10-13T20:15:14.236Z,98451.72
2022-10-13T20:18:15.954Z,98460.63
2022-10-13T20:21:18.042Z,98460.72
2022-10-13T20:24:23.279Z,98462.53
2022-10-13T20:27:25.089Z,98463.41
2022-10-13T20:30:26.685Z,98458.06
2022-10-13T20:33:28.689Z,98458.91
2022-10-13T20:36:34.709Z,98463.41
2022-10-13T20:39:41.072Z,98464.34
2022-10-13T20:42:43.065Z,98460.81
2022-10-13T20:45:44.926Z,98466.16
2022-10-13T20:52:08.803Z,98459.09
2022-10-13T20:55:12.129Z,98452.03
2022-10-13T20:58:13.679Z,98461.00
2022-10-13T21:01:15.472Z,98453.06
2022-10-13T21:04:17.511Z,98457.47
2022-10-13T21:07:19.425Z,98452.19
2022-10-13T21:10:22.563Z,98450.47
2022-10-13T21:13:25.589Z,98454.97
2022-10-13T21:16:28.308Z,98452.28
2022-10-13T21:19:30.285Z,98457.69
2022-10-13T21:22:31.867Z,98451.47
2022-10-13T21:25:35.958Z,98449.75
2022-10-13T21:28:38.968Z,98444.41
2022-10-13T21:31:40.933Z,98454.22
2022-10-13T21:34:45.658Z,98448.03
2022-10-13T21:37:47.337Z,98451.56
2022-10-13T21:40:53.832Z,98442.78
2022-10-13T21:43:55.976Z,98443.72
2022-10-13T21:46:58.286Z,98443.63
2022-10-13T21:50:00.209Z,98445.44
2022-10-13T21:53:01.847Z,98442.84
2022-10-13T21:56:07.091Z,98451.72
2022-10-13T21:59:10.695Z,98450.00
2022-10-13T22:02:12.391Z,98442.16
2022-10-13T22:05:14.357Z,98442.16
2022-10-13T22:08:16.017Z,98440.41
2022-10-13T22:11:19.802Z,98444.03
2022-10-13T22:14:21.559Z,98441.34
2022-10-13T22:17:23.568Z,98441.44
2022-10-13T22:20:25.533Z,98433.50
2022-10-13T22:23:27.415Z,98430.06
2022-10-13T22:26:31.759Z,98424.91
2022-10-13T22:29:33.542Z,98421.41
2022-10-13T22:32:35.238Z,98432.09
2022-10-13T22:35:37.116Z,98433.06
2022-10-13T22:38:41.493Z,98441.06
2022-10-13T22:41:45.034Z,98432.28
2022-10-13T22:44:46.858Z,98435.03
2022-10-13T22:47:49.077Z,98438.56
2022-10-13T22:50:50.721Z,98432.44
2022-10-13T22:53:52.648Z,98436.06
2022-10-13T22:56:56.072Z,98429.84
2022-10-13T22:59:58.058Z,98430.72
2022-10-13T23:02:59.928Z,98429.00
2022-10-13T23:06:01.734Z,98427.19
2022-10-13T23:09:04.538Z,98424.44
2022-10-13T23:12:07.483Z,98426.16
2022-10-13T23:15:09.980Z,98431.50
2022-10-13T23:18:11.519Z,98426.25
2022-10-13T23:21:14.149Z,98427.09
2022-10-13T23:24:15.709Z,98420.91
2022-10-13T23:27:21.559Z,98418.22
2022-10-13T23:30:23.499Z,98425.38
2022-10-13T23:33:25.539Z,98412.97
2022-10-13T23:36:28.497Z,98414.78
2022-10-13T23:39:30.008Z,98413.81
2022-10-13T23:42:32.997Z,98415.72
2022-10-13T23:45:34.504Z,98412.19
2022-10-13T23:48:36.092Z,98413.09
2022-10-13T23:51:37.604Z,98416.72
2022-10-13T23:54:39.225Z,98409.56
2022-10-13T23:57:42.153Z,98407.75
